Flight Track Log - Related Links

Times and Time Zones

All times are in EDT time to prevent confusion due to time zone crossing. See the UPS1121 flight status page for this flight to view local times or setup timezone preferences in your user account.

Time Position Orientation Groundspeed Altitude Reporting Facility
EDT Latitude Longitude Course Direction KTS MPH feet Rate Location/Type
Fri 09:44:57 PM 42.7297 -73.8081 148° Southeast 161 185 1,600  Level Boston Center
Fri 09:46:40 PM 42.6617 -73.7503 148° Southeast 224 258 5,100 3,055 Climbing Boston Center
Fri 09:47:40 PM 42.5983 -73.6389 128° Southeast 284 327 9,900 3,077 Climbing Boston Center
Fri 09:48:37 PM 42.5431 -73.5447 129° Southeast 354 407 11,100 660 Climbing Boston Center
Fri 09:49:20 PM 42.5000 -73.4650 126° Southeast 376 433 11,000  Descending Boston Center
Fri 09:50:20 PM 42.4319 -73.3656 133° Southeast 365 420 11,100 49 Climbing Boston Center
Fri 09:51:22 PM 42.3619 -73.2689 134° Southeast 363 418 11,100 -98 Level Boston Center
Fri 09:52:22 PM 42.3189 -73.1589 118° Southeast 326 375 10,900 -737 Descending Boston Center
Fri 09:53:16 PM 42.2986 -73.0575 105° East 294 338 9,700 -1,500 Descending Boston Center
Fri 09:54:18 PM 42.2742 -72.9536 108° East 292 336 8,000 -1,800 Descending Boston Center
Fri 09:55:16 PM 42.2497 -72.8497 108° East 286 329 6,100 -2,067 Descending Boston Center
Fri 09:56:17 PM 42.2061 -72.7625 124° Southeast 268 308 3,900 -1,488 Descending Boston Center
Fri 09:57:17 PM 42.1564 -72.7006 137° Southeast 229 264 3,100 -634 Descending Boston Center
Fri 09:58:20 PM 42.1189 -72.6556 138° Southeast 151 174 2,600 -390 Descending Boston Center
Fri 09:59:20 PM 42.0814 -72.6192 144° Southeast 162 186 2,300 -298 Descending Boston Center
Fri 10:00:21 PM 42.0397 -72.5911 153° Southeast 168 193 2,000 -345 Descending Boston Center
Fri 10:01:39 PM 41.9958 -72.6133 201° Southwest 152 175 1,500 -496 Descending Boston Center
Fri 10:02:22 PM 41.9750 -72.6383 222° Southwest 112 129 1,000 -583 Descending Boston Center
Fri 10:03:22 PM 41.9522 -72.6661 222° Southwest 107 123 500 -500 Descending Boston Center
Fri 10:05:00 PM 41.9333 -72.6833 180° South  Level FlightAware Approximate
Fri 10:12:00 PM 41.9392 -72.6834 180° South  Level Estimated

Login

Don't have an account? Register now (free) for customized features, flight alerts, and more!